Time;durP1;ratioP1;P1;durP2;ratioP2;P2;SDS_P1;SDS_P2;PMS_P1;PMS_P2;Temp;Humidity;BMP_temperature;BMP_pressure;BME280_temperature;BME280_humidity;BME280_pressure;Samples;Min_cycle;Max_cycle;Signal;HPM_P1;HPM_P2
2023/05/12 00:01:15;;;;;;;15.52;6.88;;;;;;;12.07;82.52;101309.97;5072954;28;20059;-86
2023/05/12 00:03:41;;;;;;;14.07;7.53;;;;;;;11.76;82.50;101269.19;5072982;28;20028;-86
2023/05/12 00:06:07;;;;;;;13.48;6.78;;;;;;;11.97;82.94;101299.88;5073051;28;20028;-86
2023/05/12 00:08:32;;;;;;;14.55;6.60;;;;;;;12.05;83.10;101311.94;5072184;28;20032;-86
2023/05/12 00:10:58;;;;;;;14.52;7.05;;;;;;;11.91;83.08;101294.97;5073665;28;20040;-86
2023/05/12 00:13:24;;;;;;;17.80;7.30;;;;;;;11.84;83.18;101280.22;5073672;28;20028;-86
2023/05/12 00:15:50;;;;;;;11.25;7.13;;;;;;;11.73;83.49;101274.81;5072617;28;20032;-86
2023/05/12 00:18:16;;;;;;;19.10;7.35;;;;;;;11.87;83.53;101290.78;5073098;28;20021;-86
2023/05/12 00:20:41;;;;;;;11.20;6.20;;;;;;;11.84;83.59;101277.53;5071893;28;20117;-87
2023/05/12 00:23:07;;;;;;;12.68;6.63;;;;;;;11.65;83.50;101257.47;5073956;28;20485;-87
2023/05/12 00:25:33;;;;;;;24.42;7.90;;;;;;;11.88;83.18;101297.03;5073583;28;20032;-86
2023/05/12 00:27:58;;;;;;;13.00;6.00;;;;;;;11.74;83.67;101292.66;5086320;28;20080;-90
2023/05/12 00:30:24;;;;;;;15.93;5.95;;;;;;;11.89;84.07;101310.41;5091178;28;20051;-87
2023/05/12 00:32:50;;;;;;;12.20;7.57;;;;;;;11.64;84.21;101283.53;5081502;28;20466;-87
2023/05/12 00:35:16;;;;;;;14.40;7.05;;;;;;;11.55;84.64;101278.00;5072461;28;20097;-88
2023/05/12 00:37:41;;;;;;;13.13;6.85;;;;;;;11.73;84.41;101301.75;5071838;28;20548;-87
2023/05/12 00:40:08;;;;;;;11.98;6.93;;;;;;;11.75;84.83;101299.78;5071794;28;20021;-87
2023/05/12 00:42:34;;;;;;;20.17;7.57;;;;;;;11.75;84.50;101299.78;5070840;28;20036;-86
2023/05/12 00:45:00;;;;;;;18.60;7.50;;;;;;;11.55;84.80;101276.16;5070674;28;20086;-87
2023/05/12 00:47:26;;;;;;;15.23;6.85;;;;;;;11.47;84.79;101259.69;5071678;28;20450;-86
2023/05/12 00:49:52;;;;;;;10.27;7.00;;;;;;;11.63;84.74;101303.38;5071987;28;20040;-87
2023/05/12 00:52:18;;;;;;;8.98;6.72;;;;;;;11.55;84.94;101286.94;5072789;28;20089;-86
2023/05/12 00:54:44;;;;;;;15.25;6.82;;;;;;;11.40;84.82;101266.53;5072520;28;20020;-87
2023/05/12 00:57:11;;;;;;;12.95;6.47;;;;;;;11.64;84.94;101304.25;5073238;28;20060;-85
2023/05/12 00:59:36;;;;;;;8.80;6.20;;;;;;;11.51;84.97;101284.56;5075868;28;20028;-83
2023/05/12 01:02:02;;;;;;;21.98;7.63;;;;;;;11.52;85.04;101287.16;5080231;28;20081;-84
2023/05/12 01:04:28;;;;;;;12.82;7.53;;;;;;;11.42;85.53;101280.72;5072244;28;20024;-86
2023/05/12 01:07:08;;;;;;;18.27;6.60;;;;;;;11.33;85.51;101267.94;5071423;28;20025;-86
2023/05/12 01:09:34;;;;;;;10.95;7.05;;;;;;;11.37;85.30;101282.91;5073045;28;20081;-87
2023/05/12 01:12:00;;;;;;;12.20;7.10;;;;;;;11.23;85.35;101258.81;5078153;28;20032;-86
2023/05/12 01:14:25;;;;;;;12.25;7.78;;;;;;;11.28;85.63;101252.13;5083221;28;20066;-86
2023/05/12 01:16:53;;;;;;;10.38;7.35;;;;;;;11.44;85.47;101295.81;5083157;28;20039;-87
2023/05/12 01:19:40;;;;;;;14.27;7.40;;;;;;;11.14;85.61;101259.50;5075194;28;20035;-86
2023/05/12 01:22:06;;;;;;;11.80;8.20;;;;;;;11.11;86.72;101254.34;5054944;28;20048;-84
2023/05/12 01:24:34;;;;;;;28.35;8.82;;;;;;;11.18;86.56;101266.41;5065331;28;20048;-87
2023/05/12 01:27:01;;;;;;;12.02;7.35;;;;;;;11.18;86.93;101275.34;5063158;28;20097;-88
2023/05/12 01:29:27;;;;;;;16.63;7.50;;;;;;;11.32;87.75;101295.84;5057700;28;20048;-87
2023/05/12 01:31:53;;;;;;;19.60;9.20;;;;;;;11.16;87.52;101273.75;5050175;28;20044;-86
2023/05/12 01:34:19;;;;;;;15.30;7.82;;;;;;;11.22;87.15;101276.81;5050588;28;20056;-85
2023/05/12 01:36:45;;;;;;;17.02;8.20;;;;;;;11.14;87.29;101256.81;5050511;28;20505;-86
2023/05/12 01:39:11;;;;;;;11.38;7.75;;;;;;;11.20;87.39;101265.31;5050948;28;20057;-85
2023/05/12 01:41:37;;;;;;;12.95;7.43;;;;;;;11.31;88.11;101278.81;5053327;28;20043;-89
2023/05/12 01:44:03;;;;;;;15.57;7.85;;;;;;;11.04;87.75;101235.09;5049661;28;20056;-89
2023/05/12 01:46:28;;;;;;;9.05;7.00;;;;;;;11.06;87.84;101235.88;5050427;28;20094;-85
2023/05/12 01:48:54;;;;;;;15.50;7.43;;;;;;;11.21;87.60;101239.25;5050990;28;20923;-85
2023/05/12 01:51:19;;;;;;;11.63;6.97;;;;;;;11.14;87.26;101256.81;5050277;28;20031;-84
2023/05/12 01:53:45;;;;;;;13.75;7.07;;;;;;;11.11;87.00;101233.69;5051320;28;20037;-85
2023/05/12 01:56:10;;;;;;;12.82;7.20;;;;;;;11.04;87.32;101237.78;5050584;28;20479;-84
2023/05/12 01:58:36;;;;;;;12.40;7.90;;;;;;;11.06;87.75;101240.38;5055501;28;20037;-85
2023/05/12 02:01:02;;;;;;;28.38;8.23;;;;;;;11.23;87.55;101261.53;5072203;28;20047;-86
2023/05/12 02:03:27;;;;;;;15.68;7.75;;;;;;;11.15;87.51;101251.34;5073896;28;20033;-86
2023/05/12 02:05:52;;;;;;;16.45;7.10;;;;;;;11.21;87.88;101267.03;5083992;28;20042;-85
2023/05/12 02:08:18;;;;;;;9.60;7.30;;;;;;;11.12;87.26;101256.09;5089294;28;20032;-88
2023/05/12 02:10:43;;;;;;;11.65;7.78;;;;;;;11.11;87.83;101259.72;5094688;28;20062;-92
2023/05/12 02:13:09;;;;;;;13.30;8.20;;;;;;;11.14;88.17;101270.28;5083918;28;20036;-86
2023/05/12 02:15:34;;;;;;;9.48;7.38;;;;;;;11.15;87.81;101270.19;5086138;28;20047;-86
2023/05/12 02:18:00;;;;;;;18.20;7.28;;;;;;;11.25;88.13;101278.44;5083367;28;20032;-87
2023/05/12 02:20:28;;;;;;;14.73;8.18;;;;;;;10.90;87.98;101213.72;5077613;28;20027;-84
2023/05/12 02:22:53;;;;;;;12.80;7.65;;;;;;;11.06;87.93;101243.06;5089214;28;20039;-85
2023/05/12 02:25:19;;;;;;;16.77;8.43;;;;;;;11.20;88.04;101270.69;5089934;28;20016;-86
2023/05/12 02:27:44;;;;;;;19.85;7.57;;;;;;;10.95;88.31;101230.38;5074513;28;20386;-85
2023/05/12 02:30:10;;;;;;;12.88;7.78;;;;;;;11.14;88.38;101272.97;5075026;28;20036;-86
2023/05/12 02:32:35;;;;;;;15.35;8.35;;;;;;;10.94;88.55;101228.69;5075449;28;20471;-87
2023/05/12 02:35:01;;;;;;;12.55;8.25;;;;;;;10.91;88.77;101232.47;5073249;28;20020;-86
2023/05/12 02:37:26;;;;;;;14.88;8.80;;;;;;;11.07;88.90;101256.41;5074436;28;20092;-85
2023/05/12 02:39:52;;;;;;;13.02;8.52;;;;;;;10.97;89.00;101247.31;5072642;28;20060;-86
2023/05/12 02:42:17;;;;;;;10.60;7.75;;;;;;;10.90;89.40;101246.88;5074840;28;20028;-86
2023/05/12 02:44:43;;;;;;;13.57;8.27;;;;;;;10.81;89.41;101226.03;5075063;28;20047;-86
2023/05/12 02:47:08;;;;;;;20.75;9.15;;;;;;;10.84;89.66;101236.56;5075301;28;20028;-85
2023/05/12 02:49:35;;;;;;;13.70;7.88;;;;;;;11.04;89.25;101258.50;5075355;28;20028;-86
2023/05/12 02:52:00;;;;;;;22.00;8.43;;;;;;;10.82;88.97;101237.66;5073836;28;20089;-88
2023/05/12 02:54:26;;;;;;;14.57;8.02;;;;;;;10.79;88.96;101233.34;5074508;28;20036;-86
2023/05/12 02:56:52;;;;;;;11.57;8.82;;;;;;;10.88;89.15;101237.22;5074282;28;20024;-88
2023/05/12 02:59:17;;;;;;;15.00;8.65;;;;;;;10.90;88.31;101244.19;5074201;28;20028;-86
2023/05/12 03:01:43;;;;;;;11.48;8.35;;;;;;;11.12;88.58;101277.63;5071892;28;20028;-86
2023/05/12 03:04:08;;;;;;;14.10;7.60;;;;;;;10.87;88.02;101246.25;5072795;28;20082;-86
2023/05/12 03:06:34;;;;;;;9.63;7.15;;;;;;;10.86;88.28;101247.22;5074136;28;20490;-85
2023/05/12 03:08:59;;;;;;;19.38;8.98;;;;;;;10.90;87.61;101252.28;5075149;28;20492;-85
2023/05/12 03:11:25;;;;;;;14.13;8.73;;;;;;;10.88;87.84;101250.66;5074721;28;20459;-84
2023/05/12 03:14:10;;;;;;;15.18;7.55;;;;;;;10.75;87.63;101236.38;5079038;28;20379;-85
2023/05/12 03:16:35;;;;;;;11.57;7.20;;;;;;;10.89;87.19;101260.44;5077342;28;20505;-85
2023/05/12 03:19:01;;;;;;;11.10;7.40;;;;;;;10.87;86.60;101240.88;5092556;28;20035;-87
2023/05/12 03:21:27;;;;;;;21.38;8.52;;;;;;;11.04;86.58;101262.00;5088064;28;20044;-86
2023/05/12 03:23:53;;;;;;;10.65;7.63;;;;;;;10.96;86.45;101250.09;5078916;28;20102;-85
2023/05/12 03:26:18;;;;;;;22.63;9.65;;;;;;;11.25;86.45;101300.00;5076172;28;20028;-86
2023/05/12 03:28:44;;;;;;;26.00;12.05;;;;;;;11.12;85.55;101272.22;5078097;28;20047;-85
2023/05/12 03:31:09;;;;;;;13.98;8.55;;;;;;;11.11;85.04;101268.69;5075669;28;20089;-87
2023/05/12 03:33:35;;;;;;;12.70;7.15;;;;;;;11.16;84.52;101273.75;5075318;28;20402;-86
2023/05/12 03:36:00;;;;;;;24.48;8.25;;;;;;;11.34;84.73;101305.53;5074797;28;20028;-86
2023/05/12 03:38:25;;;;;;;21.23;7.25;;;;;;;11.40;83.91;101309.63;5076988;28;20431;-84
2023/05/12 03:41:01;;;;;;;22.95;7.80;;;;;;;11.33;83.85;101294.88;5074754;28;20029;-86
2023/05/12 03:43:27;;;;;;;21.52;7.40;;;;;;;11.41;83.60;101303.25;5077064;28;20080;-86
2023/05/12 03:45:52;;;;;;;13.63;7.70;;;;;;;11.44;83.75;101308.41;5077334;28;20063;-87
2023/05/12 03:48:17;;;;;;;12.00;7.07;;;;;;;11.41;83.35;101292.47;5072131;28;20333;-85
2023/05/12 03:50:43;;;;;;;15.05;7.68;;;;;;;11.47;82.98;101283.94;5071213;28;20051;-86
2023/05/12 03:53:08;;;;;;;18.25;8.93;;;;;;;11.59;82.77;101287.56;5071342;28;20059;-83
2023/05/12 03:55:34;;;;;;;19.00;8.55;;;;;;;11.66;82.58;101278.03;5071719;28;20023;-80
2023/05/12 03:57:59;;;;;;;27.75;7.45;;;;;;;11.79;82.34;101293.19;5073086;28;20040;-81
2023/05/12 04:00:25;;;;;;;19.25;6.68;;;;;;;11.65;81.17;101266.38;5072588;28;20026;-79
2023/05/12 04:02:50;;;;;;;15.88;7.55;;;;;;;11.75;81.37;101280.91;5071230;28;20107;-84
2023/05/12 04:05:16;;;;;;;11.88;7.47;;;;;;;11.91;81.21;101280.63;5072391;28;20020;-91
2023/05/12 04:07:41;;;;;;;20.55;7.65;;;;;;;11.97;80.70;101280.16;5071968;28;20029;-83
2023/05/12 04:10:07;;;;;;;12.60;7.25;;;;;;;12.05;79.27;101287.66;5070400;28;20024;-85
2023/05/12 04:12:33;;;;;;;25.00;8.93;;;;;;;12.14;79.82;101289.66;5070893;28;20051;-88
2023/05/12 04:14:58;;;;;;;24.17;7.80;;;;;;;12.25;79.22;101297.75;5083335;28;20077;-87
2023/05/12 04:17:24;;;;;;;21.95;8.55;;;;;;;12.23;78.64;101267.34;5087562;28;20024;-86
2023/05/12 04:19:51;;;;;;;18.10;7.18;;;;;;;12.39;78.84;101289.44;5083583;28;20177;-90
2023/05/12 04:22:18;;;;;;;13.98;7.93;;;;;;;12.44;77.79;101295.34;5069362;28;20596;-83
2023/05/12 04:24:43;;;;;;;14.65;6.20;;;;;;;12.42;77.42;101273.88;5070399;28;20384;-86
2023/05/12 04:27:09;;;;;;;14.55;6.85;;;;;;;12.42;76.83;101273.88;5070849;28;20051;-88
2023/05/12 04:29:34;;;;;;;17.08;6.68;;;;;;;12.47;76.69;101281.63;5070397;28;20039;-90
2023/05/12 04:31:59;;;;;;;11.93;5.60;;;;;;;12.68;76.41;101296.09;5069543;28;20025;-91
2023/05/12 04:34:25;;;;;;;13.02;5.93;;;;;;;12.71;75.98;101289.59;5068579;28;20032;-86
2023/05/12 04:37:14;;;;;;;13.48;5.82;;;;;;;12.82;75.79;101293.16;5076099;28;20027;-89
2023/05/12 04:39:39;;;;;;;27.08;6.07;;;;;;;12.77;74.94;101256.72;5015570;28;20054;-85
2023/05/12 04:42:05;;;;;;;22.58;8.88;;;;;;;13.07;74.58;101292.91;5009104;28;20050;-87
2023/05/12 04:44:31;;;;;;;22.38;6.22;;;;;;;13.11;73.61;101276.47;5007853;28;20161;-88
2023/05/12 04:46:56;;;;;;;14.43;5.65;;;;;;;13.15;72.84;101259.03;5007948;28;20493;-86
2023/05/12 04:49:22;;;;;;;21.42;6.95;;;;;;;13.32;72.52;101275.56;5007638;28;20144;-85
2023/05/12 04:51:47;;;;;;;24.30;9.43;;;;;;;13.50;71.62;101282.16;5008120;28;20433;-81
2023/05/12 04:54:13;;;;;;;17.75;5.63;;;;;;;13.44;71.09;101274.56;5006817;28;20121;-81
2023/05/12 04:56:38;;;;;;;17.55;6.40;;;;;;;13.61;70.72;101281.25;5006611;28;20064;-81
2023/05/12 04:59:04;;;;;;;16.80;5.22;;;;;;;13.62;70.18;101281.13;5006227;28;20100;-82
2023/05/12 05:01:29;;;;;;;25.38;6.68;;;;;;;13.70;69.63;101280.47;5006817;28;20130;-81
2023/05/12 05:03:55;;;;;;;23.60;6.68;;;;;;;13.73;68.80;101274.81;5007754;28;20136;-82
2023/05/12 05:06:20;;;;;;;15.50;5.40;;;;;;;13.85;68.27;101284.59;5009124;28;20037;-83
2023/05/12 05:08:46;;;;;;;25.75;6.22;;;;;;;13.78;66.85;101261.78;5008750;28;20046;-89
2023/05/12 05:11:11;;;;;;;22.15;6.53;;;;;;;13.90;66.21;101255.31;5021289;28;20100;-81
2023/05/12 05:13:36;;;;;;;21.80;5.15;;;;;;;14.10;64.47;101295.03;5013296;28;20044;-82
2023/05/12 05:16:02;;;;;;;29.25;6.32;;;;;;;14.05;63.66;101270.25;5008464;28;20137;-82
2023/05/12 05:18:28;;;;;;;29.40;6.22;;;;;;;14.21;63.38;101290.56;5006307;28;20085;-81
2023/05/12 05:20:54;;;;;;;13.15;3.83;;;;;;;14.24;62.24;101285.75;5006132;28;20060;-84
2023/05/12 05:23:19;;;;;;;15.18;4.43;;;;;;;14.25;62.43;101278.50;5008313;28;20045;-83
2023/05/12 05:25:45;;;;;;;23.23;5.20;;;;;;;14.35;61.82;101276.72;5010944;28;20496;-84
2023/05/12 05:28:10;;;;;;;31.48;6.28;;;;;;;14.58;60.97;101284.56;5047004;28;20030;-87
2023/05/12 05:30:36;;;;;;;32.83;5.10;;;;;;;14.62;59.07;101304.09;5010203;28;20473;-82
2023/05/12 05:33:01;;;;;;;11.85;3.42;;;;;;;14.75;59.09;101299.31;5011973;28;20057;-85
2023/05/12 05:35:26;;;;;;;17.50;3.92;;;;;;;14.74;59.33;101283.22;5013973;28;20036;-89
2023/05/12 05:37:53;;;;;;;29.38;6.75;;;;;;;14.91;58.68;101282.56;5016950;28;20029;-85
2023/05/12 05:40:18;;;;;;;19.90;5.70;;;;;;;15.01;57.55;101287.03;5055493;28;20156;-85
2023/05/12 05:42:44;;;;;;;15.15;4.50;;;;;;;15.00;54.36;101277.19;5052615;28;20488;-89
2023/05/12 05:45:10;;;;;;;12.30;3.53;;;;;;;15.17;53.70;101298.19;5048807;28;20033;-83
2023/05/12 05:47:36;;;;;;;13.05;3.33;;;;;;;15.29;51.76;101312.50;5048108;28;20025;-80
2023/05/12 05:50:05;;;;;;;11.50;4.05;;;;;;;15.47;51.57;101315.41;5048325;28;20065;-82
2023/05/12 05:52:31;;;;;;;26.83;4.80;;;;;;;15.60;51.71;101310.59;5048325;28;20040;-81
2023/05/12 05:54:56;;;;;;;15.25;4.63;;;;;;;15.58;51.37;101301.75;5047947;28;20025;-86
2023/05/12 05:57:21;;;;;;;21.50;3.75;;;;;;;15.71;50.61;101300.50;5048807;28;20569;-84
2023/05/12 05:59:47;;;;;;;11.25;3.50;;;;;;;15.76;50.63;101316.34;5050167;28;20461;-81
2023/05/12 06:02:12;;;;;;;39.60;4.28;;;;;;;15.75;51.13;101299.19;5059901;28;20381;-82
2023/05/12 06:04:38;;;;;;;21.00;6.13;;;;;;;15.90;51.44;101317.78;5058826;28;20033;-84
2023/05/12 06:07:03;;;;;;;19.67;4.78;;;;;;;15.92;51.20;101294.94;5062826;28;20021;-83
2023/05/12 06:09:29;;;;;;;8.52;3.92;;;;;;;16.05;51.47;101298.22;5063134;28;20040;-85
2023/05/12 06:11:55;;;;;;;17.92;5.05;;;;;;;16.08;51.66;101306.06;5072254;28;20021;-81
2023/05/12 06:14:20;;;;;;;27.30;5.40;;;;;;;16.08;51.27;101319.66;5071983;28;20032;-82
2023/05/12 06:16:45;;;;;;;24.98;5.57;;;;;;;16.20;51.12;101302.22;5072372;28;20029;-88
2023/05/12 06:19:11;;;;;;;25.80;5.72;;;;;;;16.39;50.67;101316.75;5071864;28;20475;-77
2023/05/12 06:21:37;;;;;;;16.77;5.28;;;;;;;16.32;50.44;101292.91;5072957;28;20513;-82
2023/05/12 06:24:03;;;;;;;20.88;5.65;;;;;;;16.45;50.01;101318.88;5072395;28;20028;-81
2023/05/12 06:26:28;;;;;;;33.50;6.35;;;;;;;16.46;50.26;101315.16;5073173;28;20059;-85
2023/05/12 06:28:55;;;;;;;34.55;6.40;;;;;;;16.54;49.53;101318.00;5075288;28;20267;-80
2023/05/12 06:31:20;;;;;;;17.75;5.32;;;;;;;16.56;49.39;101310.59;5074433;28;20377;-78
2023/05/12 06:33:46;;;;;;;19.95;4.93;;;;;;;16.72;49.16;101311.72;5074332;28;20101;-79
2023/05/12 06:36:11;;;;;;;10.52;3.85;;;;;;;16.49;49.99;101295.84;5077145;28;20028;-79
2023/05/12 06:38:37;;;;;;;13.15;5.68;;;;;;;16.64;50.63;101302.56;5075239;28;20484;-80
2023/05/12 06:41:02;;;;;;;15.05;3.55;;;;;;;16.65;50.32;101294.28;5072927;28;20460;-82
2023/05/12 06:43:28;;;;;;;57.60;7.50;;;;;;;16.83;49.85;101326.97;5072446;28;20063;-80
2023/05/12 06:45:53;;;;;;;24.55;7.60;;;;;;;16.70;49.51;101323.69;5071047;28;20028;-79
2023/05/12 06:48:18;;;;;;;51.70;10.90;;;;;;;16.84;49.46;101315.09;5070496;28;20032;-81
2023/05/12 06:50:44;;;;;;;49.38;11.40;;;;;;;16.92;49.64;101317.91;5070680;28;20031;-80
2023/05/12 06:53:10;;;;;;;9.93;3.75;;;;;;;16.98;49.19;101311.03;5070461;28;20503;-79
2023/05/12 06:55:35;;;;;;;10.60;3.70;;;;;;;17.02;48.56;101321.47;5071310;28;20028;-79
2023/05/12 06:58:01;;;;;;;13.82;3.30;;;;;;;16.99;48.66;101318.19;5070484;28;20491;-79
2023/05/12 07:00:27;;;;;;;16.15;4.65;;;;;;;17.18;49.40;101321.69;5070699;28;20129;-78
2023/05/12 07:02:52;;;;;;;13.45;4.18;;;;;;;17.34;49.62;101319.16;5072045;28;20048;-79
2023/05/12 07:05:18;;;;;;;10.35;4.28;;;;;;;17.38;49.00;101306.97;5074150;28;20498;-80
2023/05/12 07:07:44;;;;;;;6.63;2.97;;;;;;;17.66;49.03;101317.84;5070584;28;20029;-78
2023/05/12 07:10:10;;;;;;;10.05;3.20;;;;;;;17.68;47.78;101315.81;5084396;28;20052;-79
2023/05/12 07:12:37;;;;;;;12.30;3.83;;;;;;;17.56;48.76;101322.47;5069884;28;20036;-78
2023/05/12 07:15:03;;;;;;;122.55;9.02;;;;;;;17.63;48.70;101310.00;5070348;28;20036;-78
2023/05/12 07:17:28;;;;;;;9.60;3.50;;;;;;;17.61;47.94;101314.75;5069764;28;20025;-79
2023/05/12 07:19:54;;;;;;;8.60;3.40;;;;;;;17.73;47.22;101327.13;5070099;28;20037;-80
2023/05/12 07:22:19;;;;;;;18.33;4.50;;;;;;;17.87;47.57;101323.84;5070255;28;20043;-79
2023/05/12 07:24:45;;;;;;;10.20;3.70;;;;;;;17.98;46.75;101315.44;5069936;28;20095;-79
2023/05/12 07:27:10;;;;;;;11.30;3.50;;;;;;;18.05;46.13;101324.69;5069945;28;20024;-80
2023/05/12 07:29:36;;;;;;;17.00;5.07;;;;;;;18.20;44.72;101320.41;5070765;28;20020;-78
2023/05/12 07:32:02;;;;;;;21.77;4.60;;;;;;;18.21;45.91;101324.84;5070429;28;20033;-80
2023/05/12 07:34:27;;;;;;;30.30;4.40;;;;;;;18.33;45.49;101322.72;5070631;28;20033;-79
2023/05/12 07:36:53;;;;;;;7.32;3.03;;;;;;;18.35;45.86;101327.00;5050989;28;20040;-80
2023/05/12 07:39:22;;;;;;;24.60;3.80;;;;;;;18.28;45.31;101336.84;5069895;28;20052;-80
2023/05/12 07:41:49;;;;;;;26.08;3.80;;;;;;;18.27;45.09;101335.13;5070290;28;20858;-79
2023/05/12 07:44:15;;;;;;;9.55;3.95;;;;;;;18.33;45.22;101317.28;5069451;28;20058;-81
2023/05/12 07:46:40;;;;;;;17.30;3.70;;;;;;;18.36;43.61;101333.31;5069746;28;20017;-79
2023/05/12 07:49:06;;;;;;;7.18;2.95;;;;;;;18.39;44.06;101338.44;5070600;28;20047;-86
2023/05/12 07:51:31;;;;;;;34.08;5.93;;;;;;;18.50;45.28;101340.94;5072125;28;20507;-83
2023/05/12 07:53:57;;;;;;;18.98;3.53;;;;;;;18.58;44.65;101340.16;5071008;28;20055;-80
2023/05/12 07:56:23;;;;;;;8.77;3.13;;;;;;;18.40;44.86;101354.66;5071522;28;20052;-78
2023/05/12 07:58:48;;;;;;;13.68;2.50;;;;;;;18.23;43.62;101338.28;5070752;28;20217;-79
2023/05/12 08:01:14;;;;;;;11.00;3.47;;;;;;;18.17;44.40;101344.38;5076300;28;20036;-82
2023/05/12 08:03:39;;;;;;;15.48;3.05;;;;;;;18.29;44.33;101338.53;5071409;28;20074;-83
2023/05/12 08:06:06;;;;;;;7.10;3.10;;;;;;;18.27;43.25;101351.47;5068527;28;20028;-80
2023/05/12 08:08:32;;;;;;;8.93;3.00;;;;;;;18.40;43.50;101351.94;5069801;28;20507;-80
2023/05/12 08:10:58;;;;;;;11.70;2.78;;;;;;;18.41;42.90;101348.16;5069540;28;20051;-82
2023/05/12 08:13:25;;;;;;;19.40;3.42;;;;;;;18.35;43.39;101345.22;5069696;28;20743;-78
2023/05/12 08:15:51;;;;;;;12.50;3.83;;;;;;;18.33;43.85;101339.94;5068345;28;20027;-79
2023/05/12 08:18:16;;;;;;;8.10;3.22;;;;;;;18.30;43.63;101351.16;5070427;28;20025;-79
2023/05/12 08:20:42;;;;;;;23.98;4.78;;;;;;;18.40;44.13;101341.03;5069934;28;20039;-80
2023/05/12 08:23:07;;;;;;;8.88;3.95;;;;;;;18.57;42.57;101324.81;5069500;28;20037;-82
2023/05/12 08:25:35;;;;;;;19.13;4.32;;;;;;;18.85;42.67;101340.00;5069801;28;20035;-86
2023/05/12 08:28:00;;;;;;;19.15;3.55;;;;;;;18.89;41.81;101344.13;5070046;28;20538;-79
2023/05/12 08:30:26;;;;;;;13.65;2.80;;;;;;;18.80;42.97;101356.00;5069660;28;20120;-82
2023/05/12 08:32:53;;;;;;;12.88;3.53;;;;;;;18.82;44.37;101362.13;5069699;28;20502;-81
2023/05/12 08:35:18;;;;;;;12.15;3.03;;;;;;;18.92;45.06;101351.97;5069583;28;20040;-81
2023/05/12 08:37:44;;;;;;;16.33;3.47;;;;;;;18.88;44.91;101361.50;5069069;28;20044;-83
2023/05/12 08:40:21;;;;;;;25.60;3.42;;;;;;;18.88;43.97;101364.22;5068887;28;20036;-80
2023/05/12 08:43:17;;;;;;;13.48;3.70;;;;;;;18.86;45.48;101363.53;5068838;28;20043;-80
2023/05/12 08:45:43;;;;;;;20.55;3.67;;;;;;;18.86;47.10;101352.63;5069073;28;20036;-81
2023/05/12 08:48:10;;;;;;;9.88;3.25;;;;;;;18.94;46.79;101358.13;5070690;28;20419;-82
2023/05/12 08:50:37;;;;;;;25.10;4.07;;;;;;;18.96;48.02;101370.56;5070087;28;20029;-80
2023/05/12 08:53:06;;;;;;;20.02;4.20;;;;;;;19.31;47.42;101379.63;5069662;28;20032;-83
2023/05/12 08:55:33;;;;;;;18.67;4.85;;;;;;;19.26;45.03;101369.22;5072521;28;20777;-81
2023/05/12 08:58:01;;;;;;;9.00;3.20;;;;;;;19.40;46.63;101351.41;5071817;28;20064;-84
2023/05/12 09:00:29;;;;;;;27.65;5.30;;;;;;;19.62;47.41;101369.91;5068847;28;20032;-82
2023/05/12 09:02:56;;;;;;;15.77;3.58;;;;;;;19.61;47.29;101370.06;5068373;28;20395;-82
2023/05/12 09:05:21;;;;;;;25.75;4.03;;;;;;;19.63;46.54;101368.88;5067944;28;20032;-81
2023/05/12 09:07:48;;;;;;;23.80;4.15;;;;;;;19.70;47.09;101363.63;5068357;28;20041;-81
2023/05/12 09:10:16;;;;;;;10.30;2.92;;;;;;;19.74;48.19;101359.53;5068051;28;20016;-80
2023/05/12 09:12:44;;;;;;;17.25;3.97;;;;;;;19.71;48.66;101366.19;5068406;28;20089;-81
2023/05/12 09:15:18;;;;;;;28.45;4.03;;;;;;;19.52;48.45;101371.91;5068006;28;20399;-82
2023/05/12 09:17:44;;;;;;;9.73;4.15;;;;;;;19.53;48.47;101369.03;5068646;28;20430;-81
2023/05/12 09:20:11;;;;;;;18.30;4.07;;;;;;;19.68;47.65;101371.97;5067940;28;20124;-82
2023/05/12 09:22:38;;;;;;;9.75;3.25;;;;;;;19.61;47.22;101353.69;5068367;28;20086;-80
2023/05/12 09:25:17;;;;;;;11.13;3.28;;;;;;;19.59;48.39;101356.59;5068311;28;20082;-80
2023/05/12 09:27:46;;;;;;;18.65;4.03;;;;;;;19.50;47.85;101363.91;5069841;28;20108;-81
2023/05/12 09:30:12;;;;;;;8.88;3.08;;;;;;;19.47;47.63;101364.25;5068079;28;20036;-80
2023/05/12 09:32:37;;;;;;;9.05;3.22;;;;;;;19.70;48.06;101366.34;5068286;28;20462;-80
2023/05/12 09:35:11;;;;;;;24.48;4.13;;;;;;;19.72;47.00;101354.25;5068084;28;20027;-82
2023/05/12 09:37:38;;;;;;;6.80;3.35;;;;;;;19.94;46.97;101366.41;5068603;28;20118;-80
2023/05/12 09:40:06;;;;;;;23.75;3.75;;;;;;;19.99;44.09;101353.13;5068034;28;20052;-83
2023/05/12 09:42:33;;;;;;;6.28;3.17;;;;;;;19.66;43.17;101330.38;5068395;28;20036;-81
2023/05/12 09:45:00;;;;;;;18.77;3.90;;;;;;;19.31;44.23;101347.75;5068880;28;20381;-80
2023/05/12 09:47:28;;;;;;;14.65;3.92;;;;;;;19.25;45.62;101359.31;5068584;28;20028;-82
2023/05/12 09:49:55;;;;;;;15.18;4.53;;;;;;;19.31;45.12;101357.81;5071084;28;20029;-82
2023/05/12 09:52:21;;;;;;;14.32;3.58;;;;;;;19.34;44.41;101363.78;5072394;28;20089;-80
2023/05/12 09:54:47;;;;;;;13.75;3.88;;;;;;;19.36;45.05;101360.88;5070076;28;20024;-80
2023/05/12 09:57:15;;;;;;;29.98;3.80;;;;;;;19.33;43.93;101351.16;5069867;28;20033;-82
2023/05/12 09:59:43;;;;;;;38.38;5.18;;;;;;;19.06;43.06;101354.09;5067862;28;20120;-82
2023/05/12 10:02:12;;;;;;;15.82;4.30;;;;;;;18.86;43.53;101352.63;5067986;28;20040;-80
2023/05/12 10:04:49;;;;;;;18.30;4.22;;;;;;;18.74;45.74;101354.78;5068100;28;20051;-81
2023/05/12 10:07:16;;;;;;;6.80;3.28;;;;;;;18.71;46.80;101355.09;5067832;28;20040;-82
2023/05/12 10:09:44;;;;;;;29.40;4.80;;;;;;;18.75;46.50;101350.16;5068108;28;20020;-80
2023/05/12 10:12:10;;;;;;;11.98;3.40;;;;;;;18.73;46.41;101342.16;5067230;28;20483;-82
2023/05/12 10:14:36;;;;;;;19.17;4.07;;;;;;;18.62;46.44;101349.72;5066422;28;20025;-81
2023/05/12 10:17:02;;;;;;;9.27;3.10;;;;;;;18.70;46.33;101347.91;5068121;28;20113;-81
2023/05/12 10:19:29;;;;;;;15.25;4.15;;;;;;;18.89;45.89;101352.31;5069284;28;20119;-81
2023/05/12 10:21:56;;;;;;;25.88;6.45;;;;;;;19.06;45.64;101355.97;5070917;28;20028;-80
2023/05/12 10:24:25;;;;;;;8.73;3.05;;;;;;;19.00;44.97;101354.75;5082851;28;20792;-83
2023/05/12 10:26:54;;;;;;;15.88;3.70;;;;;;;18.90;45.20;101348.53;5067233;28;20463;-82
2023/05/12 10:29:21;;;;;;;14.10;4.18;;;;;;;18.76;45.39;101344.56;5067046;28;20521;-80
2023/05/12 10:31:48;;;;;;;31.25;5.38;;;;;;;19.02;44.98;101358.16;5067985;28;20033;-82
2023/05/12 10:34:20;;;;;;;26.17;9.82;;;;;;;19.31;44.45;101350.47;5067829;28;20032;-79
2023/05/12 10:36:48;;;;;;;15.40;3.75;;;;;;;19.34;42.68;101336.50;5068949;28;20036;-83
2023/05/12 10:39:17;;;;;;;12.98;3.55;;;;;;;19.44;42.25;101348.19;5084025;28;20052;-82
2023/05/12 10:41:42;;;;;;;24.60;3.90;;;;;;;19.30;42.00;101346.03;5070208;28;20104;-80
2023/05/12 10:44:11;;;;;;;24.88;5.05;;;;;;;19.28;41.45;101345.34;5072197;28;20078;-80
2023/05/12 10:46:36;;;;;;;17.30;3.35;;;;;;;19.39;40.73;101353.28;5074292;28;20046;-81
2023/05/12 10:49:06;;;;;;;26.15;3.40;;;;;;;19.37;40.46;101336.19;5080167;28;20590;-82
2023/05/12 10:51:45;;;;;;;26.38;3.35;;;;;;;19.28;39.25;101350.81;5075694;28;20024;-84
2023/05/12 10:54:23;;;;;;;19.23;4.47;;;;;;;19.40;39.79;101345.94;5072355;28;20434;-81
2023/05/12 10:56:49;;;;;;;23.90;4.07;;;;;;;19.17;39.15;101355.72;5073409;28;20038;-81
2023/05/12 10:59:21;;;;;;;24.52;3.97;;;;;;;19.13;39.93;101348.84;5075948;28;20033;-81
2023/05/12 11:02:01;;;;;;;25.40;4.22;;;;;;;18.95;40.75;101344.34;5080529;28;20040;-83
2023/05/12 11:04:46;;;;;;;28.40;4.97;;;;;;;19.03;40.82;101346.25;5078673;28;20407;-81
2023/05/12 11:07:13;;;;;;;20.85;4.03;;;;;;;18.84;39.72;101338.28;5073146;28;20036;-82
2023/05/12 11:09:44;;;;;;;13.57;3.47;;;;;;;18.70;38.68;101336.16;5072652;28;20036;-81
2023/05/12 11:12:11;;;;;;;23.13;4.40;;;;;;;18.65;38.13;101339.38;5072706;28;20028;-80
2023/05/12 11:14:37;;;;;;;12.07;3.30;;;;;;;18.73;37.96;101357.63;5071909;28;20032;-80